sensor_id;sensor_type;location;lat;lon;timestamp;pressure;altitude;pressure_sealevel;temperature;humidity
61898;BME280;47850;50.274;18.908;2023-04-25T00:01:21;97025.17;;;9.53;89.66
61898;BME280;47850;50.274;18.908;2023-04-25T00:03:49;97024.91;;;9.51;89.73
61898;BME280;47850;50.274;18.908;2023-04-25T00:06:17;97022.40;;;9.51;89.72
61898;BME280;47850;50.274;18.908;2023-04-25T00:08:45;97027.33;;;9.51;89.79
61898;BME280;47850;50.274;18.908;2023-04-25T00:11:13;97027.18;;;9.50;90.05
61898;BME280;47850;50.274;18.908;2023-04-25T00:13:40;97027.00;;;9.46;90.26
61898;BME280;47850;50.274;18.908;2023-04-25T00:16:09;97027.46;;;9.43;90.46
61898;BME280;47850;50.274;18.908;2023-04-25T00:18:36;97027.39;;;9.41;90.47
61898;BME280;47850;50.274;18.908;2023-04-25T00:21:04;97028.52;;;9.40;90.59
61898;BME280;47850;50.274;18.908;2023-04-25T00:23:33;97023.13;;;9.39;90.68
61898;BME280;47850;50.274;18.908;2023-04-25T00:26:03;97025.98;;;9.38;90.75
61898;BME280;47850;50.274;18.908;2023-04-25T00:28:31;97028.63;;;9.39;91.12
61898;BME280;47850;50.274;18.908;2023-04-25T00:30:58;97025.34;;;9.38;91.22
61898;BME280;47850;50.274;18.908;2023-04-25T00:33:26;97028.90;;;9.37;91.70
61898;BME280;47850;50.274;18.908;2023-04-25T00:35:54;97023.38;;;9.35;91.58
61898;BME280;47850;50.274;18.908;2023-04-25T00:38:21;97025.64;;;9.36;91.62
61898;BME280;47850;50.274;18.908;2023-04-25T00:40:49;97026.10;;;9.35;91.57
61898;BME280;47850;50.274;18.908;2023-04-25T00:43:17;97027.27;;;9.35;91.45
61898;BME280;47850;50.274;18.908;2023-04-25T00:45:44;97031.34;;;9.34;91.06
61898;BME280;47850;50.274;18.908;2023-04-25T00:48:14;97031.06;;;9.33;91.05
61898;BME280;47850;50.274;18.908;2023-04-25T00:50:43;97031.64;;;9.31;90.87
61898;BME280;47850;50.274;18.908;2023-04-25T00:53:16;97034.70;;;9.29;90.56
61898;BME280;47850;50.274;18.908;2023-04-25T00:55:44;97033.88;;;9.28;90.48
61898;BME280;47850;50.274;18.908;2023-04-25T00:58:12;97032.52;;;9.27;90.48
61898;BME280;47850;50.274;18.908;2023-04-25T01:00:40;97036.05;;;9.25;90.39
61898;BME280;47850;50.274;18.908;2023-04-25T01:03:08;97039.44;;;9.24;90.40
61898;BME280;47850;50.274;18.908;2023-04-25T01:05:37;97044.69;;;9.21;90.38
61898;BME280;47850;50.274;18.908;2023-04-25T01:08:05;97044.70;;;9.17;90.44
61898;BME280;47850;50.274;18.908;2023-04-25T01:10:32;97042.11;;;9.14;90.43
61898;BME280;47850;50.274;18.908;2023-04-25T01:13:00;97043.28;;;9.12;90.37
61898;BME280;47850;50.274;18.908;2023-04-25T01:15:28;97042.06;;;9.09;90.45
61898;BME280;47850;50.274;18.908;2023-04-25T01:17:56;97042.20;;;9.07;90.46
61898;BME280;47850;50.274;18.908;2023-04-25T01:20:24;97041.11;;;9.04;90.40
61898;BME280;47850;50.274;18.908;2023-04-25T01:22:52;97043.58;;;9.02;90.31
61898;BME280;47850;50.274;18.908;2023-04-25T01:25:20;97046.77;;;8.99;90.17
61898;BME280;47850;50.274;18.908;2023-04-25T01:27:48;97045.83;;;8.97;89.87
61898;BME280;47850;50.274;18.908;2023-04-25T01:30:16;97048.54;;;8.94;89.73
61898;BME280;47850;50.274;18.908;2023-04-25T01:32:43;97051.70;;;8.92;89.65
61898;BME280;47850;50.274;18.908;2023-04-25T01:35:11;97056.23;;;8.88;89.34
61898;BME280;47850;50.274;18.908;2023-04-25T01:37:39;97060.48;;;8.85;88.84
61898;BME280;47850;50.274;18.908;2023-04-25T01:40:08;97061.42;;;8.80;88.57
61898;BME280;47850;50.274;18.908;2023-04-25T01:42:37;97059.31;;;8.78;88.76
61898;BME280;47850;50.274;18.908;2023-04-25T01:45:05;97060.54;;;8.75;88.93
61898;BME280;47850;50.274;18.908;2023-04-25T01:47:33;97058.36;;;8.73;88.95
61898;BME280;47850;50.274;18.908;2023-04-25T01:50:05;97060.98;;;8.70;88.71
61898;BME280;47850;50.274;18.908;2023-04-25T01:52:33;97061.58;;;8.67;88.38
61898;BME280;47850;50.274;18.908;2023-04-25T01:55:01;97064.13;;;8.65;88.26
61898;BME280;47850;50.274;18.908;2023-04-25T01:57:29;97063.95;;;8.59;87.77
61898;BME280;47850;50.274;18.908;2023-04-25T02:00:00;97063.84;;;8.54;87.32
61898;BME280;47850;50.274;18.908;2023-04-25T02:02:29;97068.11;;;8.50;87.27
61898;BME280;47850;50.274;18.908;2023-04-25T02:04:56;97067.31;;;8.45;86.85
61898;BME280;47850;50.274;18.908;2023-04-25T02:07:25;97067.01;;;8.42;86.75
61898;BME280;47850;50.274;18.908;2023-04-25T02:09:53;97066.11;;;8.38;86.72
61898;BME280;47850;50.274;18.908;2023-04-25T02:12:21;97069.33;;;8.35;86.74
61898;BME280;47850;50.274;18.908;2023-04-25T02:14:51;97073.83;;;8.31;86.67
61898;BME280;47850;50.274;18.908;2023-04-25T02:17:19;97073.88;;;8.28;86.69
61898;BME280;47850;50.274;18.908;2023-04-25T02:19:48;97076.31;;;8.23;86.56
61898;BME280;47850;50.274;18.908;2023-04-25T02:22:16;97074.50;;;8.18;86.57
61898;BME280;47850;50.274;18.908;2023-04-25T02:24:44;97073.86;;;8.15;86.82
61898;BME280;47850;50.274;18.908;2023-04-25T02:27:12;97073.78;;;8.11;86.82
61898;BME280;47850;50.274;18.908;2023-04-25T02:29:39;97073.80;;;8.07;87.10
61898;BME280;47850;50.274;18.908;2023-04-25T02:32:07;97071.46;;;8.05;87.08
61898;BME280;47850;50.274;18.908;2023-04-25T02:34:34;97070.17;;;8.01;87.40
61898;BME280;47850;50.274;18.908;2023-04-25T02:37:02;97070.16;;;7.97;87.56
61898;BME280;47850;50.274;18.908;2023-04-25T02:39:30;97077.21;;;7.95;87.69
61898;BME280;47850;50.274;18.908;2023-04-25T02:41:57;97083.33;;;7.92;87.79
61898;BME280;47850;50.274;18.908;2023-04-25T02:44:25;97077.90;;;7.90;87.99
61898;BME280;47850;50.274;18.908;2023-04-25T02:46:53;97077.16;;;7.89;88.07
61898;BME280;47850;50.274;18.908;2023-04-25T02:49:20;97075.69;;;7.89;88.17
61898;BME280;47850;50.274;18.908;2023-04-25T02:51:48;97077.60;;;7.87;87.99
61898;BME280;47850;50.274;18.908;2023-04-25T02:54:16;97076.83;;;7.85;87.87
61898;BME280;47850;50.274;18.908;2023-04-25T02:56:43;97076.29;;;7.83;87.78
61898;BME280;47850;50.274;18.908;2023-04-25T02:59:11;97074.51;;;7.81;87.49
61898;BME280;47850;50.274;18.908;2023-04-25T03:01:39;97076.02;;;7.80;87.26
61898;BME280;47850;50.274;18.908;2023-04-25T03:04:06;97076.25;;;7.78;87.15
61898;BME280;47850;50.274;18.908;2023-04-25T03:06:34;97074.77;;;7.75;86.88
61898;BME280;47850;50.274;18.908;2023-04-25T03:09:02;97072.00;;;7.73;86.66
61898;BME280;47850;50.274;18.908;2023-04-25T03:11:29;97073.26;;;7.71;86.52
61898;BME280;47850;50.274;18.908;2023-04-25T03:13:57;97073.70;;;7.70;86.19
61898;BME280;47850;50.274;18.908;2023-04-25T03:16:25;97073.20;;;7.69;85.93
61898;BME280;47850;50.274;18.908;2023-04-25T03:18:53;97069.31;;;7.69;85.77
61898;BME280;47850;50.274;18.908;2023-04-25T03:21:20;97071.63;;;7.69;85.57
61898;BME280;47850;50.274;18.908;2023-04-25T03:23:48;97071.07;;;7.66;85.34
61898;BME280;47850;50.274;18.908;2023-04-25T03:26:16;97072.77;;;7.64;85.33
61898;BME280;47850;50.274;18.908;2023-04-25T03:28:43;97073.98;;;7.63;85.45
61898;BME280;47850;50.274;18.908;2023-04-25T03:31:11;97079.37;;;7.61;85.31
61898;BME280;47850;50.274;18.908;2023-04-25T03:33:39;97084.41;;;7.61;85.27
61898;BME280;47850;50.274;18.908;2023-04-25T03:36:06;97084.77;;;7.60;85.06
61898;BME280;47850;50.274;18.908;2023-04-25T03:38:34;97085.22;;;7.59;84.94
61898;BME280;47850;50.274;18.908;2023-04-25T03:41:02;97086.54;;;7.58;84.48
61898;BME280;47850;50.274;18.908;2023-04-25T03:43:30;97088.87;;;7.56;84.25
61898;BME280;47850;50.274;18.908;2023-04-25T03:45:57;97091.48;;;7.56;84.20
61898;BME280;47850;50.274;18.908;2023-04-25T03:48:25;97090.50;;;7.54;83.72
61898;BME280;47850;50.274;18.908;2023-04-25T03:50:54;97085.73;;;7.53;83.61
61898;BME280;47850;50.274;18.908;2023-04-25T03:53:22;97088.85;;;7.54;83.30
61898;BME280;47850;50.274;18.908;2023-04-25T03:55:49;97087.58;;;7.54;83.10
61898;BME280;47850;50.274;18.908;2023-04-25T03:58:17;97088.44;;;7.55;82.85
61898;BME280;47850;50.274;18.908;2023-04-25T04:00:45;97094.30;;;7.54;82.98
61898;BME280;47850;50.274;18.908;2023-04-25T04:03:13;97094.75;;;7.54;82.79
61898;BME280;47850;50.274;18.908;2023-04-25T04:05:40;97097.01;;;7.52;82.62
61898;BME280;47850;50.274;18.908;2023-04-25T04:08:08;97101.33;;;7.54;82.78
61898;BME280;47850;50.274;18.908;2023-04-25T04:10:36;97102.15;;;7.53;82.62
61898;BME280;47850;50.274;18.908;2023-04-25T04:13:03;97109.88;;;7.52;82.32
61898;BME280;47850;50.274;18.908;2023-04-25T04:15:31;97109.42;;;7.50;82.09
61898;BME280;47850;50.274;18.908;2023-04-25T04:18:00;97112.74;;;7.50;81.92
61898;BME280;47850;50.274;18.908;2023-04-25T04:20:30;97119.86;;;7.48;81.92
61898;BME280;47850;50.274;18.908;2023-04-25T04:22:58;97114.98;;;7.48;82.03
61898;BME280;47850;50.274;18.908;2023-04-25T04:25:26;97114.98;;;7.49;82.03
61898;BME280;47850;50.274;18.908;2023-04-25T04:27:53;97119.45;;;7.51;82.07
61898;BME280;47850;50.274;18.908;2023-04-25T04:30:22;97117.92;;;7.52;81.96
61898;BME280;47850;50.274;18.908;2023-04-25T04:32:51;97123.02;;;7.51;81.72
61898;BME280;47850;50.274;18.908;2023-04-25T04:35:19;97123.35;;;7.52;81.93
61898;BME280;47850;50.274;18.908;2023-04-25T04:37:46;97119.00;;;7.54;81.89
61898;BME280;47850;50.274;18.908;2023-04-25T04:40:15;97121.55;;;7.57;81.77
61898;BME280;47850;50.274;18.908;2023-04-25T04:42:44;97120.88;;;7.59;81.56
61898;BME280;47850;50.274;18.908;2023-04-25T04:45:15;97120.19;;;7.62;81.21
61898;BME280;47850;50.274;18.908;2023-04-25T04:47:46;97120.17;;;7.63;81.21
61898;BME280;47850;50.274;18.908;2023-04-25T04:50:16;97119.95;;;7.65;80.76
61898;BME280;47850;50.274;18.908;2023-04-25T04:52:44;97121.38;;;7.68;80.64
61898;BME280;47850;50.274;18.908;2023-04-25T04:55:12;97120.92;;;7.70;80.29
61898;BME280;47850;50.274;18.908;2023-04-25T04:57:39;97123.90;;;7.73;79.79
61898;BME280;47850;50.274;18.908;2023-04-25T05:00:07;97123.06;;;7.76;79.65
61898;BME280;47850;50.274;18.908;2023-04-25T05:02:38;97121.70;;;7.78;79.49
61898;BME280;47850;50.274;18.908;2023-04-25T05:05:06;97121.41;;;7.82;79.32
61898;BME280;47850;50.274;18.908;2023-04-25T05:07:34;97120.97;;;7.87;79.25
61898;BME280;47850;50.274;18.908;2023-04-25T05:10:02;97120.26;;;7.91;78.77
61898;BME280;47850;50.274;18.908;2023-04-25T05:12:30;97118.47;;;7.95;78.41
61898;BME280;47850;50.274;18.908;2023-04-25T05:14:58;97119.67;;;7.98;77.92
61898;BME280;47850;50.274;18.908;2023-04-25T05:17:25;97122.11;;;8.01;77.62
61898;BME280;47850;50.274;18.908;2023-04-25T05:19:53;97123.56;;;8.04;77.67
61898;BME280;47850;50.274;18.908;2023-04-25T05:22:21;97121.40;;;8.08;77.36
61898;BME280;47850;50.274;18.908;2023-04-25T05:24:48;97122.68;;;8.13;77.08
61898;BME280;47850;50.274;18.908;2023-04-25T05:27:17;97123.10;;;8.18;76.97
61898;BME280;47850;50.274;18.908;2023-04-25T05:29:44;97127.44;;;8.24;76.98
61898;BME280;47850;50.274;18.908;2023-04-25T05:32:12;97127.52;;;8.29;76.36
61898;BME280;47850;50.274;18.908;2023-04-25T05:34:40;97125.91;;;8.33;76.38
61898;BME280;47850;50.274;18.908;2023-04-25T05:37:09;97127.98;;;8.37;76.37
61898;BME280;47850;50.274;18.908;2023-04-25T05:39:36;97131.35;;;8.41;75.88
61898;BME280;47850;50.274;18.908;2023-04-25T05:42:04;97127.71;;;8.40;75.58
61898;BME280;47850;50.274;18.908;2023-04-25T05:44:32;97130.33;;;8.41;75.45
61898;BME280;47850;50.274;18.908;2023-04-25T05:47:00;97133.10;;;8.42;75.36
61898;BME280;47850;50.274;18.908;2023-04-25T05:49:27;97133.64;;;8.46;75.01
61898;BME280;47850;50.274;18.908;2023-04-25T05:51:55;97136.42;;;8.50;75.30
61898;BME280;47850;50.274;18.908;2023-04-25T05:54:23;97134.10;;;8.53;74.73
61898;BME280;47850;50.274;18.908;2023-04-25T05:56:50;97133.21;;;8.53;74.60
61898;BME280;47850;50.274;18.908;2023-04-25T05:59:18;97137.08;;;8.55;73.84
61898;BME280;47850;50.274;18.908;2023-04-25T06:01:45;97136.73;;;8.55;73.84
61898;BME280;47850;50.274;18.908;2023-04-25T06:04:14;97139.09;;;8.59;73.85
61898;BME280;47850;50.274;18.908;2023-04-25T06:06:42;97140.74;;;8.60;73.18
61898;BME280;47850;50.274;18.908;2023-04-25T06:09:09;97143.47;;;8.60;73.28
61898;BME280;47850;50.274;18.908;2023-04-25T06:11:37;97149.41;;;8.61;72.78
61898;BME280;47850;50.274;18.908;2023-04-25T06:14:05;97142.92;;;8.58;72.59
61898;BME280;47850;50.274;18.908;2023-04-25T06:16:34;97143.16;;;8.60;72.91
61898;BME280;47850;50.274;18.908;2023-04-25T06:19:02;97145.06;;;8.66;72.90
61898;BME280;47850;50.274;18.908;2023-04-25T06:21:29;97145.31;;;8.72;72.95
61898;BME280;47850;50.274;18.908;2023-04-25T06:23:57;97144.57;;;8.77;72.71
61898;BME280;47850;50.274;18.908;2023-04-25T06:26:25;97145.56;;;8.84;72.50
61898;BME280;47850;50.274;18.908;2023-04-25T06:28:52;97150.27;;;8.89;72.34
61898;BME280;47850;50.274;18.908;2023-04-25T06:31:20;97150.14;;;8.94;71.77
61898;BME280;47850;50.274;18.908;2023-04-25T06:33:48;97149.36;;;9.00;71.47
61898;BME280;47850;50.274;18.908;2023-04-25T06:36:15;97151.68;;;9.05;71.06
61898;BME280;47850;50.274;18.908;2023-04-25T06:38:43;97150.63;;;9.08;70.82
61898;BME280;47850;50.274;18.908;2023-04-25T06:41:11;97149.05;;;9.12;70.73
61898;BME280;47850;50.274;18.908;2023-04-25T06:43:38;97149.01;;;9.20;70.59
61898;BME280;47850;50.274;18.908;2023-04-25T06:46:06;97154.84;;;9.26;70.29
61898;BME280;47850;50.274;18.908;2023-04-25T06:48:34;97158.39;;;9.30;69.68
61898;BME280;47850;50.274;18.908;2023-04-25T06:51:01;97154.20;;;9.33;69.68
61898;BME280;47850;50.274;18.908;2023-04-25T06:53:29;97152.70;;;9.39;69.76
61898;BME280;47850;50.274;18.908;2023-04-25T06:55:57;97149.23;;;9.44;69.51
61898;BME280;47850;50.274;18.908;2023-04-25T06:58:25;97151.85;;;9.50;69.32
61898;BME280;47850;50.274;18.908;2023-04-25T07:00:53;97153.91;;;9.51;68.79
61898;BME280;47850;50.274;18.908;2023-04-25T07:03:21;97151.60;;;9.52;68.94
61898;BME280;47850;50.274;18.908;2023-04-25T07:05:49;97149.40;;;9.52;68.32
61898;BME280;47850;50.274;18.908;2023-04-25T07:08:17;97148.65;;;9.52;68.51
61898;BME280;47850;50.274;18.908;2023-04-25T07:10:45;97150.45;;;9.60;68.74
61898;BME280;47850;50.274;18.908;2023-04-25T07:13:13;97157.13;;;9.67;68.11
61898;BME280;47850;50.274;18.908;2023-04-25T07:15:41;97156.41;;;9.71;67.71
61898;BME280;47850;50.274;18.908;2023-04-25T07:18:09;97153.92;;;9.76;67.26
61898;BME280;47850;50.274;18.908;2023-04-25T07:20:38;97151.83;;;9.83;67.34
61898;BME280;47850;50.274;18.908;2023-04-25T07:23:05;97153.11;;;9.92;66.73
61898;BME280;47850;50.274;18.908;2023-04-25T07:25:33;97148.81;;;10.00;66.30
61898;BME280;47850;50.274;18.908;2023-04-25T07:28:01;97148.14;;;10.09;66.24
61898;BME280;47850;50.274;18.908;2023-04-25T07:30:28;97148.77;;;10.12;65.29
61898;BME280;47850;50.274;18.908;2023-04-25T07:32:56;97146.44;;;10.15;65.36
61898;BME280;47850;50.274;18.908;2023-04-25T07:35:24;97149.54;;;10.19;65.77
61898;BME280;47850;50.274;18.908;2023-04-25T07:37:51;97152.47;;;10.26;65.92
61898;BME280;47850;50.274;18.908;2023-04-25T07:40:19;97151.11;;;10.32;66.01
61898;BME280;47850;50.274;18.908;2023-04-25T07:42:47;97149.42;;;10.42;65.32
61898;BME280;47850;50.274;18.908;2023-04-25T07:45:14;97149.71;;;10.52;65.30
61898;BME280;47850;50.274;18.908;2023-04-25T07:47:42;97151.76;;;10.66;64.72
61898;BME280;47850;50.274;18.908;2023-04-25T07:50:10;97155.49;;;10.80;63.66
61898;BME280;47850;50.274;18.908;2023-04-25T07:52:38;97154.02;;;10.89;62.44
61898;BME280;47850;50.274;18.908;2023-04-25T07:55:06;97156.86;;;10.98;64.08
61898;BME280;47850;50.274;18.908;2023-04-25T07:57:33;97149.29;;;11.12;64.41
61898;BME280;47850;50.274;18.908;2023-04-25T08:00:01;97150.80;;;11.25;63.82
61898;BME280;47850;50.274;18.908;2023-04-25T08:02:29;97149.98;;;11.37;64.01
61898;BME280;47850;50.274;18.908;2023-04-25T08:04:57;97149.11;;;11.49;64.11
61898;BME280;47850;50.274;18.908;2023-04-25T08:07:25;97153.91;;;11.62;63.17
61898;BME280;47850;50.274;18.908;2023-04-25T08:09:53;97153.71;;;11.71;62.97
61898;BME280;47850;50.274;18.908;2023-04-25T08:12:21;97155.30;;;11.84;62.55
61898;BME280;47850;50.274;18.908;2023-04-25T08:14:49;97161.45;;;11.90;61.57
61898;BME280;47850;50.274;18.908;2023-04-25T08:17:17;97155.76;;;11.88;61.49
61898;BME280;47850;50.274;18.908;2023-04-25T08:19:44;97161.68;;;11.77;58.85
61898;BME280;47850;50.274;18.908;2023-04-25T08:22:12;97154.75;;;11.65;58.86
61898;BME280;47850;50.274;18.908;2023-04-25T08:24:40;97152.09;;;11.65;59.12
61898;BME280;47850;50.274;18.908;2023-04-25T08:27:08;97161.48;;;11.70;58.65
61898;BME280;47850;50.274;18.908;2023-04-25T08:29:36;97156.92;;;11.69;58.53
61898;BME280;47850;50.274;18.908;2023-04-25T08:32:04;97154.45;;;11.79;57.97
61898;BME280;47850;50.274;18.908;2023-04-25T08:34:32;97155.13;;;11.90;57.51
61898;BME280;47850;50.274;18.908;2023-04-25T08:36:59;97154.61;;;11.97;56.61
61898;BME280;47850;50.274;18.908;2023-04-25T08:39:27;97152.33;;;12.03;55.15
61898;BME280;47850;50.274;18.908;2023-04-25T08:41:55;97153.00;;;12.11;56.07
61898;BME280;47850;50.274;18.908;2023-04-25T08:44:23;97150.39;;;12.33;55.70
61898;BME280;47850;50.274;18.908;2023-04-25T08:46:52;97151.90;;;12.52;55.34
61898;BME280;47850;50.274;18.908;2023-04-25T08:49:19;97151.30;;;12.62;55.78
61898;BME280;47850;50.274;18.908;2023-04-25T08:51:48;97155.63;;;12.77;53.93
61898;BME280;47850;50.274;18.908;2023-04-25T08:54:18;97152.23;;;12.79;52.60
61898;BME280;47850;50.274;18.908;2023-04-25T08:56:48;97151.82;;;12.71;52.21
61898;BME280;47850;50.274;18.908;2023-04-25T08:59:16;97157.13;;;12.68;53.19
61898;BME280;47850;50.274;18.908;2023-04-25T09:01:44;97159.06;;;12.62;52.94
61898;BME280;47850;50.274;18.908;2023-04-25T09:04:12;97158.73;;;12.50;52.88
61898;BME280;47850;50.274;18.908;2023-04-25T09:06:40;97155.77;;;12.44;52.76
61898;BME280;47850;50.274;18.908;2023-04-25T09:09:08;97154.63;;;12.35;52.10
61898;BME280;47850;50.274;18.908;2023-04-25T09:11:38;97155.42;;;12.22;52.35
61898;BME280;47850;50.274;18.908;2023-04-25T09:14:16;97156.46;;;12.15;52.77
61898;BME280;47850;50.274;18.908;2023-04-25T09:21:55;97154.84;;;12.37;52.85
61898;BME280;47850;50.274;18.908;2023-04-25T09:24:33;97156.38;;;12.43;52.16
61898;BME280;47850;50.274;18.908;2023-04-25T09:27:09;97157.36;;;12.52;52.15
61898;BME280;47850;50.274;18.908;2023-04-25T09:29:38;97163.38;;;12.66;51.46
61898;BME280;47850;50.274;18.908;2023-04-25T09:32:22;97160.02;;;12.78;51.73
61898;BME280;47850;50.274;18.908;2023-04-25T09:34:54;97163.58;;;12.87;52.27
61898;BME280;47850;50.274;18.908;2023-04-25T09:37:23;97164.89;;;12.90;50.75
61898;BME280;47850;50.274;18.908;2023-04-25T09:39:53;97161.13;;;12.86;49.85
61898;BME280;47850;50.274;18.908;2023-04-25T09:42:22;97162.67;;;12.89;49.98
61898;BME280;47850;50.274;18.908;2023-04-25T09:44:51;97162.04;;;13.01;49.48
61898;BME280;47850;50.274;18.908;2023-04-25T09:47:19;97159.42;;;13.23;49.16
61898;BME280;47850;50.274;18.908;2023-04-25T09:49:50;97161.34;;;13.48;47.09
61898;BME280;47850;50.274;18.908;2023-04-25T09:52:20;97161.02;;;13.69;46.32
61898;BME280;47850;50.274;18.908;2023-04-25T09:54:48;97161.02;;;13.80;45.66
61898;BME280;47850;50.274;18.908;2023-04-25T09:57:17;97157.35;;;13.84;45.43
61898;BME280;47850;50.274;18.908;2023-04-25T09:59:49;97164.04;;;13.91;44.83
61898;BME280;47850;50.274;18.908;2023-04-25T10:02:18;97165.80;;;13.89;44.37
61898;BME280;47850;50.274;18.908;2023-04-25T10:04:49;97160.15;;;13.83;44.14
61898;BME280;47850;50.274;18.908;2023-04-25T10:07:20;97161.99;;;13.81;45.00
61898;BME280;47850;50.274;18.908;2023-04-25T10:09:50;97160.76;;;13.87;44.42
61898;BME280;47850;50.274;18.908;2023-04-25T10:12:20;97161.41;;;13.83;44.27
61898;BME280;47850;50.274;18.908;2023-04-25T10:14:49;97156.09;;;13.84;44.35
61898;BME280;47850;50.274;18.908;2023-04-25T10:17:16;97153.91;;;13.84;44.48
61898;BME280;47850;50.274;18.908;2023-04-25T10:19:46;97159.08;;;13.84;44.70
61898;BME280;47850;50.274;18.908;2023-04-25T10:22:17;97158.64;;;13.67;44.07
61898;BME280;47850;50.274;18.908;2023-04-25T10:24:46;97151.31;;;13.47;44.61
61898;BME280;47850;50.274;18.908;2023-04-25T10:27:14;97149.65;;;13.42;45.21
61898;BME280;47850;50.274;18.908;2023-04-25T10:29:42;97150.30;;;13.44;44.84
61898;BME280;47850;50.274;18.908;2023-04-25T10:32:12;97149.81;;;13.51;45.26
61898;BME280;47850;50.274;18.908;2023-04-25T10:34:40;97146.59;;;13.60;44.88
61898;BME280;47850;50.274;18.908;2023-04-25T10:37:09;97148.20;;;13.76;44.83
61898;BME280;47850;50.274;18.908;2023-04-25T10:39:41;97157.89;;;13.84;43.99
61898;BME280;47850;50.274;18.908;2023-04-25T10:42:09;97154.95;;;13.86;44.09
61898;BME280;47850;50.274;18.908;2023-04-25T10:44:37;97156.23;;;13.92;43.75
61898;BME280;47850;50.274;18.908;2023-04-25T10:47:07;97153.59;;;13.90;44.01
61898;BME280;47850;50.274;18.908;2023-04-25T10:49:37;97150.71;;;13.90;44.01
61898;BME280;47850;50.274;18.908;2023-04-25T10:52:12;97150.02;;;13.76;44.24
61898;BME280;47850;50.274;18.908;2023-04-25T10:55:14;97147.48;;;13.65;43.91
61898;BME280;47850;50.274;18.908;2023-04-25T10:57:43;97148.09;;;13.46;43.25
61898;BME280;47850;50.274;18.908;2023-04-25T11:00:15;97151.93;;;13.35;43.17
61898;BME280;47850;50.274;18.908;2023-04-25T11:05:28;97150.20;;;13.35;43.17
61898;BME280;47850;50.274;18.908;2023-04-25T11:07:57;97148.54;;;13.41;43.26
61898;BME280;47850;50.274;18.908;2023-04-25T11:10:28;97149.33;;;13.41;42.94
61898;BME280;47850;50.274;18.908;2023-04-25T11:12:57;97144.08;;;13.38;42.72
61898;BME280;47850;50.274;18.908;2023-04-25T11:15:25;97147.09;;;13.39;43.11
61898;BME280;47850;50.274;18.908;2023-04-25T11:17:54;97150.95;;;13.36;42.97
61898;BME280;47850;50.274;18.908;2023-04-25T11:20:25;97149.70;;;13.33;43.34
61898;BME280;47850;50.274;18.908;2023-04-25T11:22:53;97153.98;;;13.29;42.98
61898;BME280;47850;50.274;18.908;2023-04-25T11:25:22;97152.67;;;13.13;42.94
61898;BME280;47850;50.274;18.908;2023-04-25T11:27:54;97153.28;;;12.97;43.62
61898;BME280;47850;50.274;18.908;2023-04-25T11:30:22;97146.24;;;12.96;43.96
61898;BME280;47850;50.274;18.908;2023-04-25T11:32:50;97151.62;;;12.99;43.84
61898;BME280;47850;50.274;18.908;2023-04-25T11:35:19;97155.77;;;13.00;43.82
61898;BME280;47850;50.274;18.908;2023-04-25T11:37:48;97158.30;;;13.01;43.53
61898;BME280;47850;50.274;18.908;2023-04-25T11:40:17;97158.41;;;12.96;43.66
61898;BME280;47850;50.274;18.908;2023-04-25T11:42:45;97159.32;;;12.93;44.14
61898;BME280;47850;50.274;18.908;2023-04-25T11:45:14;97160.30;;;12.91;44.21
61898;BME280;47850;50.274;18.908;2023-04-25T11:47:42;97157.37;;;12.94;44.34
61898;BME280;47850;50.274;18.908;2023-04-25T11:50:10;97156.44;;;12.98;44.03
61898;BME280;47850;50.274;18.908;2023-04-25T11:52:38;97161.48;;;12.96;43.62
61898;BME280;47850;50.274;18.908;2023-04-25T11:55:10;97162.48;;;12.84;44.17
61898;BME280;47850;50.274;18.908;2023-04-25T11:57:40;97158.48;;;12.83;44.42
61898;BME280;47850;50.274;18.908;2023-04-25T12:00:16;97159.07;;;12.93;44.86
61898;BME280;47850;50.274;18.908;2023-04-25T12:02:45;97155.71;;;13.00;45.14
61898;BME280;47850;50.274;18.908;2023-04-25T12:05:14;97164.02;;;13.05;44.96
61898;BME280;47850;50.274;18.908;2023-04-25T12:07:43;97161.59;;;12.97;44.46
61898;BME280;47850;50.274;18.908;2023-04-25T12:10:13;97158.73;;;12.84;44.55
61898;BME280;47850;50.274;18.908;2023-04-25T12:12:41;97154.35;;;12.72;44.86
61898;BME280;47850;50.274;18.908;2023-04-25T12:17:40;97153.41;;;12.54;45.57
61898;BME280;47850;50.274;18.908;2023-04-25T12:20:09;97154.35;;;12.47;46.26
61898;BME280;47850;50.274;18.908;2023-04-25T12:22:37;97157.98;;;12.49;45.77
61898;BME280;47850;50.274;18.908;2023-04-25T12:25:05;97155.92;;;12.43;45.45
61898;BME280;47850;50.274;18.908;2023-04-25T12:27:33;97152.11;;;12.37;45.52
61898;BME280;47850;50.274;18.908;2023-04-25T12:30:01;97154.89;;;12.36;45.68
61898;BME280;47850;50.274;18.908;2023-04-25T12:32:29;97155.44;;;12.40;46.40
61898;BME280;47850;50.274;18.908;2023-04-25T12:34:57;97159.25;;;12.49;45.84
61898;BME280;47850;50.274;18.908;2023-04-25T12:37:25;97160.86;;;12.62;45.38
61898;BME280;47850;50.274;18.908;2023-04-25T12:39:52;97160.86;;;12.74;45.08
61898;BME280;47850;50.274;18.908;2023-04-25T12:42:20;97159.73;;;12.83;44.92
61898;BME280;47850;50.274;18.908;2023-04-25T12:44:48;97161.15;;;12.91;44.74
61898;BME280;47850;50.274;18.908;2023-04-25T12:47:16;97158.79;;;12.90;44.46
61898;BME280;47850;50.274;18.908;2023-04-25T12:49:44;97160.54;;;12.88;44.50
61898;BME280;47850;50.274;18.908;2023-04-25T12:52:11;97159.52;;;12.88;44.44
61898;BME280;47850;50.274;18.908;2023-04-25T12:54:39;97155.20;;;12.86;44.72
61898;BME280;47850;50.274;18.908;2023-04-25T12:57:07;97148.48;;;12.87;45.13
61898;BME280;47850;50.274;18.908;2023-04-25T12:59:35;97145.08;;;12.85;45.00
61898;BME280;47850;50.274;18.908;2023-04-25T13:02:03;97150.27;;;12.86;45.09
61898;BME280;47850;50.274;18.908;2023-04-25T13:04:30;97147.80;;;12.88;44.70
61898;BME280;47850;50.274;18.908;2023-04-25T13:06:58;97149.92;;;12.85;44.79
61898;BME280;47850;50.274;18.908;2023-04-25T13:09:26;97146.01;;;12.84;44.92
61898;BME280;47850;50.274;18.908;2023-04-25T13:11:54;97142.14;;;12.82;45.25